sensor_id;sensor_type;location;lat;lon;timestamp;P1;durP1;ratioP1;P2;durP2;ratioP2
21878;SDS011;27908;42.708;23.278;2023-03-08T00:01:16;18.25;;;8.13;;
21878;SDS011;27908;42.708;23.278;2023-03-08T00:03:43;17.40;;;7.38;;
21878;SDS011;27908;42.708;23.278;2023-03-08T00:06:10;21.73;;;7.10;;
21878;SDS011;27908;42.708;23.278;2023-03-08T00:08:37;15.75;;;7.15;;
21878;SDS011;27908;42.708;23.278;2023-03-08T00:11:03;17.87;;;7.20;;
21878;SDS011;27908;42.708;23.278;2023-03-08T00:13:30;17.95;;;6.75;;
21878;SDS011;27908;42.708;23.278;2023-03-08T00:16:03;16.83;;;7.23;;
21878;SDS011;27908;42.708;23.278;2023-03-08T00:18:30;17.85;;;8.43;;
21878;SDS011;27908;42.708;23.278;2023-03-08T00:21:00;16.50;;;7.07;;
21878;SDS011;27908;42.708;23.278;2023-03-08T00:23:26;15.68;;;7.70;;
21878;SDS011;27908;42.708;23.278;2023-03-08T00:25:52;16.27;;;7.27;;
21878;SDS011;27908;42.708;23.278;2023-03-08T00:28:18;20.15;;;8.15;;
21878;SDS011;27908;42.708;23.278;2023-03-08T00:30:43;24.53;;;8.73;;
21878;SDS011;27908;42.708;23.278;2023-03-08T00:33:09;18.10;;;7.63;;
21878;SDS011;27908;42.708;23.278;2023-03-08T00:35:34;16.00;;;7.85;;
21878;SDS011;27908;42.708;23.278;2023-03-08T00:38:00;18.00;;;8.07;;
21878;SDS011;27908;42.708;23.278;2023-03-08T00:40:25;20.70;;;7.90;;
21878;SDS011;27908;42.708;23.278;2023-03-08T00:42:50;15.80;;;8.00;;
21878;SDS011;27908;42.708;23.278;2023-03-08T00:45:16;17.50;;;7.60;;
21878;SDS011;27908;42.708;23.278;2023-03-08T00:47:41;20.98;;;7.90;;
21878;SDS011;27908;42.708;23.278;2023-03-08T00:50:07;17.93;;;7.53;;
21878;SDS011;27908;42.708;23.278;2023-03-08T00:52:33;22.60;;;7.78;;
21878;SDS011;27908;42.708;23.278;2023-03-08T00:54:58;18.90;;;8.20;;
21878;SDS011;27908;42.708;23.278;2023-03-08T00:57:24;18.17;;;7.83;;
21878;SDS011;27908;42.708;23.278;2023-03-08T00:59:49;19.67;;;7.93;;
21878;SDS011;27908;42.708;23.278;2023-03-08T01:02:14;16.63;;;7.93;;
21878;SDS011;27908;42.708;23.278;2023-03-08T01:04:40;20.15;;;8.07;;
21878;SDS011;27908;42.708;23.278;2023-03-08T01:07:05;20.27;;;7.87;;
21878;SDS011;27908;42.708;23.278;2023-03-08T01:09:31;17.67;;;8.00;;
21878;SDS011;27908;42.708;23.278;2023-03-08T01:11:56;19.83;;;7.70;;
21878;SDS011;27908;42.708;23.278;2023-03-08T01:14:21;20.57;;;8.10;;
21878;SDS011;27908;42.708;23.278;2023-03-08T01:16:47;20.15;;;8.27;;
21878;SDS011;27908;42.708;23.278;2023-03-08T01:19:12;23.73;;;8.40;;
21878;SDS011;27908;42.708;23.278;2023-03-08T01:21:38;19.47;;;7.80;;
21878;SDS011;27908;42.708;23.278;2023-03-08T01:24:03;21.13;;;7.97;;
21878;SDS011;27908;42.708;23.278;2023-03-08T01:26:29;19.85;;;8.65;;
21878;SDS011;27908;42.708;23.278;2023-03-08T01:28:55;17.47;;;8.10;;
21878;SDS011;27908;42.708;23.278;2023-03-08T01:31:22;21.77;;;8.52;;
21878;SDS011;27908;42.708;23.278;2023-03-08T01:33:49;18.80;;;7.65;;
21878;SDS011;27908;42.708;23.278;2023-03-08T01:36:16;19.73;;;8.50;;
21878;SDS011;27908;42.708;23.278;2023-03-08T01:38:43;20.20;;;8.50;;
21878;SDS011;27908;42.708;23.278;2023-03-08T01:41:17;20.08;;;7.55;;
21878;SDS011;27908;42.708;23.278;2023-03-08T01:43:45;18.60;;;9.07;;
21878;SDS011;27908;42.708;23.278;2023-03-08T01:46:24;17.55;;;7.85;;
21878;SDS011;27908;42.708;23.278;2023-03-08T01:51:42;16.95;;;7.50;;
21878;SDS011;27908;42.708;23.278;2023-03-08T01:54:15;21.02;;;7.22;;
21878;SDS011;27908;42.708;23.278;2023-03-08T01:56:44;18.50;;;8.43;;
21878;SDS011;27908;42.708;23.278;2023-03-08T01:59:11;17.20;;;8.40;;
21878;SDS011;27908;42.708;23.278;2023-03-08T02:01:38;18.57;;;8.80;;
21878;SDS011;27908;42.708;23.278;2023-03-08T02:04:04;23.25;;;10.32;;
21878;SDS011;27908;42.708;23.278;2023-03-08T02:06:30;24.35;;;10.48;;
21878;SDS011;27908;42.708;23.278;2023-03-08T02:08:56;18.52;;;8.68;;
21878;SDS011;27908;42.708;23.278;2023-03-08T02:11:22;16.97;;;7.97;;
21878;SDS011;27908;42.708;23.278;2023-03-08T02:13:49;22.20;;;9.80;;
21878;SDS011;27908;42.708;23.278;2023-03-08T02:16:17;17.10;;;8.40;;
21878;SDS011;27908;42.708;23.278;2023-03-08T02:18:49;16.90;;;8.47;;
21878;SDS011;27908;42.708;23.278;2023-03-08T02:21:15;17.63;;;8.35;;
21878;SDS011;27908;42.708;23.278;2023-03-08T02:23:40;21.60;;;9.47;;
21878;SDS011;27908;42.708;23.278;2023-03-08T02:26:05;22.63;;;9.63;;
21878;SDS011;27908;42.708;23.278;2023-03-08T02:28:31;21.57;;;7.80;;
21878;SDS011;27908;42.708;23.278;2023-03-08T02:30:57;20.27;;;7.50;;
21878;SDS011;27908;42.708;23.278;2023-03-08T02:33:23;17.75;;;7.78;;
21878;SDS011;27908;42.708;23.278;2023-03-08T02:35:49;20.85;;;8.45;;
21878;SDS011;27908;42.708;23.278;2023-03-08T02:38:15;19.77;;;9.10;;
21878;SDS011;27908;42.708;23.278;2023-03-08T02:40:42;22.80;;;8.53;;
21878;SDS011;27908;42.708;23.278;2023-03-08T02:43:08;19.50;;;8.18;;
21878;SDS011;27908;42.708;23.278;2023-03-08T02:45:34;18.20;;;9.00;;
21878;SDS011;27908;42.708;23.278;2023-03-08T02:48:00;19.55;;;8.85;;
21878;SDS011;27908;42.708;23.278;2023-03-08T02:50:26;12.38;;;6.03;;
21878;SDS011;27908;42.708;23.278;2023-03-08T02:52:52;21.03;;;6.23;;
21878;SDS011;27908;42.708;23.278;2023-03-08T02:55:17;19.02;;;8.07;;
21878;SDS011;27908;42.708;23.278;2023-03-08T02:57:43;19.20;;;6.80;;
21878;SDS011;27908;42.708;23.278;2023-03-08T03:00:08;17.87;;;7.83;;
21878;SDS011;27908;42.708;23.278;2023-03-08T03:02:35;18.92;;;7.95;;
21878;SDS011;27908;42.708;23.278;2023-03-08T03:05:03;14.75;;;6.50;;
21878;SDS011;27908;42.708;23.278;2023-03-08T03:07:34;12.40;;;5.17;;
21878;SDS011;27908;42.708;23.278;2023-03-08T03:10:00;19.90;;;7.70;;
21878;SDS011;27908;42.708;23.278;2023-03-08T03:12:25;15.70;;;6.10;;
21878;SDS011;27908;42.708;23.278;2023-03-08T03:14:51;13.47;;;5.93;;
21878;SDS011;27908;42.708;23.278;2023-03-08T03:17:16;15.70;;;7.30;;
21878;SDS011;27908;42.708;23.278;2023-03-08T03:19:41;18.73;;;6.67;;
21878;SDS011;27908;42.708;23.278;2023-03-08T03:22:07;18.00;;;7.00;;
21878;SDS011;27908;42.708;23.278;2023-03-08T03:24:32;16.60;;;7.03;;
21878;SDS011;27908;42.708;23.278;2023-03-08T03:26:58;16.33;;;6.45;;
21878;SDS011;27908;42.708;23.278;2023-03-08T03:29:23;17.97;;;7.67;;
21878;SDS011;27908;42.708;23.278;2023-03-08T03:31:48;19.57;;;6.77;;
21878;SDS011;27908;42.708;23.278;2023-03-08T03:34:14;16.23;;;7.33;;
21878;SDS011;27908;42.708;23.278;2023-03-08T03:36:39;16.00;;;7.15;;
21878;SDS011;27908;42.708;23.278;2023-03-08T03:39:05;16.48;;;6.97;;
21878;SDS011;27908;42.708;23.278;2023-03-08T03:41:30;17.27;;;7.67;;
21878;SDS011;27908;42.708;23.278;2023-03-08T03:43:56;20.17;;;7.53;;
21878;SDS011;27908;42.708;23.278;2023-03-08T03:46:22;15.63;;;6.70;;
21878;SDS011;27908;42.708;23.278;2023-03-08T03:48:48;16.30;;;7.03;;
21878;SDS011;27908;42.708;23.278;2023-03-08T03:51:14;15.90;;;6.77;;
21878;SDS011;27908;42.708;23.278;2023-03-08T03:53:41;16.98;;;7.43;;
21878;SDS011;27908;42.708;23.278;2023-03-08T03:56:09;17.58;;;7.43;;
21878;SDS011;27908;42.708;23.278;2023-03-08T03:58:37;15.02;;;6.40;;
21878;SDS011;27908;42.708;23.278;2023-03-08T04:01:07;17.75;;;7.35;;
21878;SDS011;27908;42.708;23.278;2023-03-08T04:03:36;16.58;;;7.30;;
21878;SDS011;27908;42.708;23.278;2023-03-08T04:06:06;13.97;;;6.20;;
21878;SDS011;27908;42.708;23.278;2023-03-08T04:08:32;14.77;;;6.63;;
21878;SDS011;27908;42.708;23.278;2023-03-08T04:10:58;16.23;;;6.80;;
21878;SDS011;27908;42.708;23.278;2023-03-08T04:13:24;17.77;;;6.65;;
21878;SDS011;27908;42.708;23.278;2023-03-08T04:15:50;18.00;;;7.53;;
21878;SDS011;27908;42.708;23.278;2023-03-08T04:18:15;17.53;;;6.90;;
21878;SDS011;27908;42.708;23.278;2023-03-08T04:20:40;17.00;;;7.30;;
21878;SDS011;27908;42.708;23.278;2023-03-08T04:23:06;19.15;;;7.10;;
21878;SDS011;27908;42.708;23.278;2023-03-08T04:25:31;18.00;;;7.17;;
21878;SDS011;27908;42.708;23.278;2023-03-08T04:27:57;14.30;;;5.73;;
21878;SDS011;27908;42.708;23.278;2023-03-08T04:30:22;20.07;;;7.23;;
21878;SDS011;27908;42.708;23.278;2023-03-08T04:32:47;18.13;;;7.10;;
21878;SDS011;27908;42.708;23.278;2023-03-08T04:35:13;15.20;;;6.75;;
21878;SDS011;27908;42.708;23.278;2023-03-08T04:37:38;18.47;;;8.50;;
21878;SDS011;27908;42.708;23.278;2023-03-08T04:40:04;19.53;;;7.90;;
21878;SDS011;27908;42.708;23.278;2023-03-08T04:42:33;20.15;;;7.97;;
21878;SDS011;27908;42.708;23.278;2023-03-08T04:44:59;20.37;;;7.80;;
21878;SDS011;27908;42.708;23.278;2023-03-08T04:47:24;21.35;;;8.07;;
21878;SDS011;27908;42.708;23.278;2023-03-08T04:49:49;21.47;;;8.77;;
21878;SDS011;27908;42.708;23.278;2023-03-08T04:52:15;15.53;;;7.77;;
21878;SDS011;27908;42.708;23.278;2023-03-08T04:54:40;18.20;;;9.00;;
21878;SDS011;27908;42.708;23.278;2023-03-08T04:57:05;20.77;;;8.97;;
21878;SDS011;27908;42.708;23.278;2023-03-08T04:59:31;19.77;;;8.50;;
21878;SDS011;27908;42.708;23.278;2023-03-08T05:01:56;19.43;;;8.27;;
21878;SDS011;27908;42.708;23.278;2023-03-08T05:04:22;19.23;;;8.57;;
21878;SDS011;27908;42.708;23.278;2023-03-08T05:06:47;19.30;;;8.43;;
21878;SDS011;27908;42.708;23.278;2023-03-08T05:09:12;19.20;;;8.47;;
21878;SDS011;27908;42.708;23.278;2023-03-08T05:11:38;16.88;;;7.70;;
21878;SDS011;27908;42.708;23.278;2023-03-08T05:14:03;18.07;;;8.57;;
21878;SDS011;27908;42.708;23.278;2023-03-08T05:16:29;23.03;;;9.40;;
21878;SDS011;27908;42.708;23.278;2023-03-08T05:18:54;25.23;;;9.07;;
21878;SDS011;27908;42.708;23.278;2023-03-08T05:21:20;19.92;;;9.55;;
21878;SDS011;27908;42.708;23.278;2023-03-08T05:23:46;21.87;;;9.83;;
21878;SDS011;27908;42.708;23.278;2023-03-08T05:26:12;25.67;;;9.55;;
21878;SDS011;27908;42.708;23.278;2023-03-08T05:28:39;20.73;;;9.30;;
21878;SDS011;27908;42.708;23.278;2023-03-08T05:31:16;19.95;;;8.70;;
21878;SDS011;27908;42.708;23.278;2023-03-08T05:33:43;22.60;;;9.45;;
21878;SDS011;27908;42.708;23.278;2023-03-08T05:36:11;30.60;;;9.93;;
21878;SDS011;27908;42.708;23.278;2023-03-08T05:38:37;20.75;;;8.55;;
21878;SDS011;27908;42.708;23.278;2023-03-08T05:41:03;21.63;;;8.57;;
21878;SDS011;27908;42.708;23.278;2023-03-08T05:43:33;20.75;;;8.60;;
21878;SDS011;27908;42.708;23.278;2023-03-08T05:46:00;18.95;;;8.93;;
21878;SDS011;27908;42.708;23.278;2023-03-08T05:48:28;31.13;;;11.32;;
21878;SDS011;27908;42.708;23.278;2023-03-08T05:50:54;105.43;;;38.85;;
21878;SDS011;27908;42.708;23.278;2023-03-08T05:53:20;94.60;;;36.00;;
21878;SDS011;27908;42.708;23.278;2023-03-08T05:55:46;90.25;;;36.83;;
21878;SDS011;27908;42.708;23.278;2023-03-08T05:58:11;33.60;;;14.27;;
21878;SDS011;27908;42.708;23.278;2023-03-08T06:00:37;25.88;;;10.90;;
21878;SDS011;27908;42.708;23.278;2023-03-08T06:03:02;23.23;;;10.80;;
21878;SDS011;27908;42.708;23.278;2023-03-08T06:05:28;23.20;;;9.77;;
21878;SDS011;27908;42.708;23.278;2023-03-08T06:07:54;20.02;;;10.52;;
21878;SDS011;27908;42.708;23.278;2023-03-08T06:10:20;28.27;;;12.00;;
21878;SDS011;27908;42.708;23.278;2023-03-08T06:12:45;20.20;;;10.52;;
21878;SDS011;27908;42.708;23.278;2023-03-08T06:15:11;29.47;;;11.50;;
21878;SDS011;27908;42.708;23.278;2023-03-08T06:17:37;24.73;;;10.90;;
21878;SDS011;27908;42.708;23.278;2023-03-08T06:20:03;24.27;;;12.35;;
21878;SDS011;27908;42.708;23.278;2023-03-08T06:22:29;21.33;;;8.35;;
21878;SDS011;27908;42.708;23.278;2023-03-08T06:24:54;20.33;;;10.03;;
21878;SDS011;27908;42.708;23.278;2023-03-08T06:27:19;21.67;;;8.67;;
21878;SDS011;27908;42.708;23.278;2023-03-08T06:29:45;18.73;;;8.67;;
21878;SDS011;27908;42.708;23.278;2023-03-08T06:32:12;21.35;;;8.80;;
21878;SDS011;27908;42.708;23.278;2023-03-08T06:34:37;20.00;;;9.57;;
21878;SDS011;27908;42.708;23.278;2023-03-08T06:37:03;25.05;;;9.77;;
21878;SDS011;27908;42.708;23.278;2023-03-08T06:39:28;25.83;;;10.60;;
21878;SDS011;27908;42.708;23.278;2023-03-08T06:41:55;24.52;;;10.18;;
21878;SDS011;27908;42.708;23.278;2023-03-08T06:44:21;26.03;;;9.63;;
21878;SDS011;27908;42.708;23.278;2023-03-08T06:46:47;23.08;;;10.40;;
21878;SDS011;27908;42.708;23.278;2023-03-08T06:49:12;27.57;;;11.70;;
21878;SDS011;27908;42.708;23.278;2023-03-08T06:51:37;18.33;;;9.13;;
21878;SDS011;27908;42.708;23.278;2023-03-08T06:54:03;25.90;;;10.47;;
21878;SDS011;27908;42.708;23.278;2023-03-08T06:56:28;27.50;;;9.77;;
21878;SDS011;27908;42.708;23.278;2023-03-08T06:58:54;19.45;;;7.57;;
21878;SDS011;27908;42.708;23.278;2023-03-08T07:01:20;20.67;;;7.35;;
21878;SDS011;27908;42.708;23.278;2023-03-08T07:03:45;21.17;;;8.40;;
21878;SDS011;27908;42.708;23.278;2023-03-08T07:06:13;19.67;;;7.78;;
21878;SDS011;27908;42.708;23.278;2023-03-08T07:08:39;19.13;;;8.43;;
21878;SDS011;27908;42.708;23.278;2023-03-08T07:11:04;25.10;;;10.33;;
21878;SDS011;27908;42.708;23.278;2023-03-08T07:13:30;19.90;;;9.60;;
21878;SDS011;27908;42.708;23.278;2023-03-08T07:15:56;22.83;;;9.27;;
21878;SDS011;27908;42.708;23.278;2023-03-08T07:18:22;18.98;;;8.43;;
21878;SDS011;27908;42.708;23.278;2023-03-08T07:20:51;23.37;;;9.13;;
21878;SDS011;27908;42.708;23.278;2023-03-08T07:23:17;16.95;;;8.00;;
21878;SDS011;27908;42.708;23.278;2023-03-08T07:25:46;16.00;;;7.15;;
21878;SDS011;27908;42.708;23.278;2023-03-08T07:28:11;16.73;;;7.13;;
21878;SDS011;27908;42.708;23.278;2023-03-08T07:30:36;19.63;;;8.40;;
21878;SDS011;27908;42.708;23.278;2023-03-08T07:33:02;18.70;;;7.43;;
21878;SDS011;27908;42.708;23.278;2023-03-08T07:35:27;18.92;;;8.10;;
21878;SDS011;27908;42.708;23.278;2023-03-08T07:37:53;15.07;;;8.20;;
21878;SDS011;27908;42.708;23.278;2023-03-08T07:40:19;17.75;;;8.27;;
21878;SDS011;27908;42.708;23.278;2023-03-08T07:42:45;16.10;;;8.07;;
21878;SDS011;27908;42.708;23.278;2023-03-08T07:45:11;15.05;;;7.65;;
21878;SDS011;27908;42.708;23.278;2023-03-08T07:47:37;17.33;;;8.07;;
21878;SDS011;27908;42.708;23.278;2023-03-08T07:50:03;16.42;;;7.85;;
21878;SDS011;27908;42.708;23.278;2023-03-08T07:52:29;17.55;;;7.60;;
21878;SDS011;27908;42.708;23.278;2023-03-08T07:54:55;20.17;;;7.93;;
21878;SDS011;27908;42.708;23.278;2023-03-08T07:57:21;15.80;;;7.57;;
21878;SDS011;27908;42.708;23.278;2023-03-08T07:59:47;16.17;;;7.80;;
21878;SDS011;27908;42.708;23.278;2023-03-08T08:02:14;15.13;;;6.40;;
21878;SDS011;27908;42.708;23.278;2023-03-08T08:04:40;12.47;;;6.40;;
21878;SDS011;27908;42.708;23.278;2023-03-08T08:07:06;12.68;;;6.50;;
21878;SDS011;27908;42.708;23.278;2023-03-08T08:09:36;15.50;;;6.95;;
21878;SDS011;27908;42.708;23.278;2023-03-08T08:12:02;15.87;;;6.50;;
21878;SDS011;27908;42.708;23.278;2023-03-08T08:14:28;17.10;;;6.30;;
21878;SDS011;27908;42.708;23.278;2023-03-08T08:16:53;15.17;;;7.03;;
21878;SDS011;27908;42.708;23.278;2023-03-08T08:19:19;13.80;;;6.47;;
21878;SDS011;27908;42.708;23.278;2023-03-08T08:21:44;13.27;;;6.23;;
21878;SDS011;27908;42.708;23.278;2023-03-08T08:24:10;14.02;;;6.75;;
21878;SDS011;27908;42.708;23.278;2023-03-08T08:26:36;14.37;;;6.53;;
21878;SDS011;27908;42.708;23.278;2023-03-08T08:29:01;21.63;;;7.97;;
21878;SDS011;27908;42.708;23.278;2023-03-08T08:31:27;16.13;;;7.20;;
21878;SDS011;27908;42.708;23.278;2023-03-08T08:33:56;18.25;;;7.22;;
21878;SDS011;27908;42.708;23.278;2023-03-08T08:36:23;21.17;;;8.65;;
21878;SDS011;27908;42.708;23.278;2023-03-08T08:38:49;15.60;;;7.18;;
21878;SDS011;27908;42.708;23.278;2023-03-08T08:41:16;15.23;;;7.23;;
21878;SDS011;27908;42.708;23.278;2023-03-08T08:43:43;16.23;;;6.33;;
21878;SDS011;27908;42.708;23.278;2023-03-08T08:46:09;17.67;;;7.10;;
21878;SDS011;27908;42.708;23.278;2023-03-08T08:48:35;14.63;;;6.75;;
21878;SDS011;27908;42.708;23.278;2023-03-08T08:51:02;15.63;;;6.53;;
21878;SDS011;27908;42.708;23.278;2023-03-08T08:53:28;15.20;;;7.17;;
21878;SDS011;27908;42.708;23.278;2023-03-08T08:55:54;18.25;;;7.32;;
21878;SDS011;27908;42.708;23.278;2023-03-08T08:58:20;17.73;;;8.07;;
21878;SDS011;27908;42.708;23.278;2023-03-08T09:00:46;18.70;;;7.95;;
21878;SDS011;27908;42.708;23.278;2023-03-08T09:03:11;17.63;;;6.87;;
21878;SDS011;27908;42.708;23.278;2023-03-08T09:05:38;15.90;;;6.78;;
21878;SDS011;27908;42.708;23.278;2023-03-08T09:08:07;16.50;;;6.77;;
21878;SDS011;27908;42.708;23.278;2023-03-08T09:10:34;17.90;;;7.72;;
21878;SDS011;27908;42.708;23.278;2023-03-08T09:13:02;19.67;;;7.55;;
21878;SDS011;27908;42.708;23.278;2023-03-08T09:15:28;15.10;;;7.00;;
21878;SDS011;27908;42.708;23.278;2023-03-08T09:17:53;16.10;;;7.57;;
21878;SDS011;27908;42.708;23.278;2023-03-08T09:20:19;15.67;;;8.47;;
21878;SDS011;27908;42.708;23.278;2023-03-08T09:22:45;17.08;;;8.02;;
21878;SDS011;27908;42.708;23.278;2023-03-08T09:25:10;21.63;;;8.00;;
21878;SDS011;27908;42.708;23.278;2023-03-08T09:27:37;17.50;;;7.90;;
21878;SDS011;27908;42.708;23.278;2023-03-08T09:30:04;18.42;;;7.40;;
21878;SDS011;27908;42.708;23.278;2023-03-08T09:32:33;15.65;;;6.93;;
21878;SDS011;27908;42.708;23.278;2023-03-08T09:34:58;16.27;;;7.40;;
21878;SDS011;27908;42.708;23.278;2023-03-08T09:37:24;20.10;;;7.80;;
21878;SDS011;27908;42.708;23.278;2023-03-08T09:39:50;19.05;;;7.68;;
21878;SDS011;27908;42.708;23.278;2023-03-08T09:42:20;17.57;;;7.40;;
21878;SDS011;27908;42.708;23.278;2023-03-08T09:47:48;17.17;;;7.78;;
21878;SDS011;27908;42.708;23.278;2023-03-08T09:50:53;22.40;;;7.70;;
21878;SDS011;27908;42.708;23.278;2023-03-08T09:58:58;15.20;;;7.07;;
21878;SDS011;27908;42.708;23.278;2023-03-08T10:09:31;12.37;;;5.97;;
21878;SDS011;27908;42.708;23.278;2023-03-08T10:14:49;13.93;;;5.63;;
21878;SDS011;27908;42.708;23.278;2023-03-08T10:17:20;14.40;;;5.53;;
21878;SDS011;27908;42.708;23.278;2023-03-08T10:22:28;11.77;;;4.68;;
21878;SDS011;27908;42.708;23.278;2023-03-08T10:27:23;10.20;;;4.30;;
21878;SDS011;27908;42.708;23.278;2023-03-08T10:29:54;9.37;;;3.67;;
21878;SDS011;27908;42.708;23.278;2023-03-08T10:32:21;11.55;;;4.05;;
21878;SDS011;27908;42.708;23.278;2023-03-08T10:34:48;12.63;;;4.57;;
21878;SDS011;27908;42.708;23.278;2023-03-08T10:37:14;12.25;;;4.05;;
21878;SDS011;27908;42.708;23.278;2023-03-08T10:39:47;11.40;;;4.85;;
21878;SDS011;27908;42.708;23.278;2023-03-08T10:42:16;13.20;;;5.50;;
21878;SDS011;27908;42.708;23.278;2023-03-08T10:44:56;12.65;;;5.45;;
21878;SDS011;27908;42.708;23.278;2023-03-08T10:47:25;15.10;;;5.30;;
21878;SDS011;27908;42.708;23.278;2023-03-08T10:50:18;13.77;;;4.95;;
21878;SDS011;27908;42.708;23.278;2023-03-08T10:52:45;12.32;;;4.70;;
21878;SDS011;27908;42.708;23.278;2023-03-08T10:55:22;11.90;;;4.03;;
21878;SDS011;27908;42.708;23.278;2023-03-08T11:03:01;11.70;;;3.63;;
21878;SDS011;27908;42.708;23.278;2023-03-08T11:05:29;13.15;;;3.53;;
21878;SDS011;27908;42.708;23.278;2023-03-08T11:07:56;13.20;;;4.27;;
21878;SDS011;27908;42.708;23.278;2023-03-08T11:10:24;12.27;;;4.03;;
21878;SDS011;27908;42.708;23.278;2023-03-08T11:15:41;11.80;;;2.65;;
21878;SDS011;27908;42.708;23.278;2023-03-08T11:18:21;9.30;;;2.80;;
21878;SDS011;27908;42.708;23.278;2023-03-08T11:20:59;6.90;;;2.40;;
21878;SDS011;27908;42.708;23.278;2023-03-08T11:23:42;6.05;;;2.30;;
21878;SDS011;27908;42.708;23.278;2023-03-08T11:26:18;7.70;;;2.50;;
21878;SDS011;27908;42.708;23.278;2023-03-08T11:34:44;8.48;;;2.10;;
21878;SDS011;27908;42.708;23.278;2023-03-08T11:37:38;6.10;;;1.92;;
21878;SDS011;27908;42.708;23.278;2023-03-08T11:40:18;4.87;;;1.40;;
21878;SDS011;27908;42.708;23.278;2023-03-08T11:45:38;8.85;;;1.80;;
21878;SDS011;27908;42.708;23.278;2023-03-08T11:51:01;4.70;;;1.60;;
21878;SDS011;27908;42.708;23.278;2023-03-08T11:53:34;5.30;;;1.70;;
21878;SDS011;27908;42.708;23.278;2023-03-08T11:59:15;6.05;;;2.03;;
21878;SDS011;27908;42.708;23.278;2023-03-08T12:07:30;5.20;;;1.57;;
21878;SDS011;27908;42.708;23.278;2023-03-08T12:10:02;5.97;;;1.63;;
21878;SDS011;27908;42.708;23.278;2023-03-08T12:12:34;9.02;;;1.90;;
21878;SDS011;27908;42.708;23.278;2023-03-08T12:18:13;6.07;;;2.08;;
21878;SDS011;27908;42.708;23.278;2023-03-08T12:20:46;5.47;;;1.57;;
21878;SDS011;27908;42.708;23.278;2023-03-08T12:26:05;5.93;;;1.90;;
21878;SDS011;27908;42.708;23.278;2023-03-08T12:28:48;5.53;;;1.50;;
21878;SDS011;27908;42.708;23.278;2023-03-08T12:34:27;5.30;;;1.87;;
21878;SDS011;27908;42.708;23.278;2023-03-08T12:37:00;6.57;;;1.58;;
21878;SDS011;27908;42.708;23.278;2023-03-08T12:39:30;7.70;;;2.00;;
21878;SDS011;27908;42.708;23.278;2023-03-08T12:44:35;7.07;;;2.03;;
21878;SDS011;27908;42.708;23.278;2023-03-08T12:47:16;5.20;;;1.50;;
21878;SDS011;27908;42.708;23.278;2023-03-08T12:49:45;4.32;;;1.42;;
21878;SDS011;27908;42.708;23.278;2023-03-08T12:55:03;5.45;;;1.63;;
21878;SDS011;27908;42.708;23.278;2023-03-08T12:57:34;6.32;;;1.50;;
21878;SDS011;27908;42.708;23.278;2023-03-08T13:05:46;5.43;;;1.40;;
21878;SDS011;27908;42.708;23.278;2023-03-08T13:13:26;4.85;;;1.45;;
21878;SDS011;27908;42.708;23.278;2023-03-08T13:18:43;5.67;;;2.10;;
21878;SDS011;27908;42.708;23.278;2023-03-08T13:21:27;5.32;;;1.60;;
21878;SDS011;27908;42.708;23.278;2023-03-08T13:24:24;6.15;;;1.55;;
21878;SDS011;27908;42.708;23.278;2023-03-08T13:29:42;5.82;;;1.63;;
21878;SDS011;27908;42.708;23.278;2023-03-08T13:32:12;6.67;;;1.90;;
21878;SDS011;27908;42.708;23.278;2023-03-08T13:34:40;4.95;;;1.60;;
21878;SDS011;27908;42.708;23.278;2023-03-08T13:37:18;5.38;;;1.70;;
21878;SDS011;27908;42.708;23.278;2023-03-08T13:39:50;5.38;;;1.90;;
21878;SDS011;27908;42.708;23.278;2023-03-08T13:42:25;7.32;;;1.92;;
21878;SDS011;27908;42.708;23.278;2023-03-08T13:44:53;4.70;;;1.40;;
21878;SDS011;27908;42.708;23.278;2023-03-08T13:47:32;4.88;;;1.42;;
21878;SDS011;27908;42.708;23.278;2023-03-08T13:49:59;5.30;;;1.60;;
21878;SDS011;27908;42.708;23.278;2023-03-08T13:52:30;5.60;;;1.60;;
21878;SDS011;27908;42.708;23.278;2023-03-08T13:55:00;7.72;;;1.92;;
21878;SDS011;27908;42.708;23.278;2023-03-08T13:57:37;5.90;;;1.60;;
21878;SDS011;27908;42.708;23.278;2023-03-08T14:00:26;5.88;;;1.65;;
21878;SDS011;27908;42.708;23.278;2023-03-08T14:02:51;5.38;;;1.77;;
21878;SDS011;27908;42.708;23.278;2023-03-08T14:05:21;7.13;;;1.90;;
21878;SDS011;27908;42.708;23.278;2023-03-08T14:08:02;8.13;;;2.08;;
21878;SDS011;27908;42.708;23.278;2023-03-08T14:10:51;7.00;;;1.60;;
21878;SDS011;27908;42.708;23.278;2023-03-08T14:16:02;6.90;;;2.00;;
21878;SDS011;27908;42.708;23.278;2023-03-08T14:18:33;8.40;;;1.67;;
21878;SDS011;27908;42.708;23.278;2023-03-08T14:21:22;5.20;;;1.80;;
21878;SDS011;27908;42.708;23.278;2023-03-08T14:23:49;5.22;;;1.80;;
21878;SDS011;27908;42.708;23.278;2023-03-08T14:31:51;5.70;;;1.97;;
21878;SDS011;27908;42.708;23.278;2023-03-08T14:34:30;5.60;;;1.83;;
21878;SDS011;27908;42.708;23.278;2023-03-08T14:36:59;5.90;;;2.03;;
21878;SDS011;27908;42.708;23.278;2023-03-08T14:39:46;7.50;;;1.63;;
21878;SDS011;27908;42.708;23.278;2023-03-08T14:42:22;5.75;;;1.95;;
21878;SDS011;27908;42.708;23.278;2023-03-08T14:44:51;6.93;;;2.10;;
21878;SDS011;27908;42.708;23.278;2023-03-08T14:52:33;7.50;;;3.20;;
21878;SDS011;27908;42.708;23.278;2023-03-08T14:55:01;6.32;;;2.35;;
21878;SDS011;27908;42.708;23.278;2023-03-08T14:57:28;9.90;;;2.80;;
21878;SDS011;27908;42.708;23.278;2023-03-08T15:00:03;6.40;;;2.28;;
21878;SDS011;27908;42.708;23.278;2023-03-08T15:02:41;12.63;;;1.90;;
21878;SDS011;27908;42.708;23.278;2023-03-08T15:05:25;6.45;;;2.33;;
21878;SDS011;27908;42.708;23.278;2023-03-08T15:07:52;7.32;;;2.17;;
21878;SDS011;27908;42.708;23.278;2023-03-08T15:12:49;11.48;;;2.03;;
21878;SDS011;27908;42.708;23.278;2023-03-08T15:15:15;7.00;;;2.05;;
21878;SDS011;27908;42.708;23.278;2023-03-08T15:17:41;6.10;;;1.73;;
21878;SDS011;27908;42.708;23.278;2023-03-08T15:20:07;5.70;;;2.22;;
21878;SDS011;27908;42.708;23.278;2023-03-08T15:22:57;6.00;;;1.83;;
21878;SDS011;27908;42.708;23.278;2023-03-08T15:25:25;5.18;;;1.63;;
21878;SDS011;27908;42.708;23.278;2023-03-08T15:27:52;6.65;;;1.80;;
21878;SDS011;27908;42.708;23.278;2023-03-08T15:30:28;8.52;;;1.83;;
21878;SDS011;27908;42.708;23.278;2023-03-08T15:32:55;7.57;;;2.30;;
21878;SDS011;27908;42.708;23.278;2023-03-08T15:35:21;9.93;;;2.13;;
21878;SDS011;27908;42.708;23.278;2023-03-08T15:37:48;6.00;;;2.00;;
21878;SDS011;27908;42.708;23.278;2023-03-08T15:40:15;8.13;;;2.17;;
21878;SDS011;27908;42.708;23.278;2023-03-08T15:42:43;6.03;;;1.73;;
21878;SDS011;27908;42.708;23.278;2023-03-08T15:45:09;6.47;;;1.90;;
21878;SDS011;27908;42.708;23.278;2023-03-08T15:47:36;7.03;;;1.90;;
21878;SDS011;27908;42.708;23.278;2023-03-08T15:50:02;6.55;;;2.15;;
21878;SDS011;27908;42.708;23.278;2023-03-08T15:52:29;6.73;;;2.20;;
21878;SDS011;27908;42.708;23.278;2023-03-08T15:54:54;7.95;;;2.47;;
21878;SDS011;27908;42.708;23.278;2023-03-08T15:57:20;6.40;;;2.10;;
21878;SDS011;27908;42.708;23.278;2023-03-08T15:59:46;11.30;;;5.03;;
21878;SDS011;27908;42.708;23.278;2023-03-08T16:02:12;6.60;;;2.33;;
21878;SDS011;27908;42.708;23.278;2023-03-08T16:04:40;5.95;;;2.15;;
21878;SDS011;27908;42.708;23.278;2023-03-08T16:07:09;7.47;;;2.30;;
21878;SDS011;27908;42.708;23.278;2023-03-08T16:09:43;10.02;;;2.55;;
21878;SDS011;27908;42.708;23.278;2023-03-08T16:12:10;16.10;;;6.27;;